Time;durP1;ratioP1;P1;durP2;ratioP2;P2;SDS_P1;SDS_P2;PMS_P1;PMS_P2;Temp;Humidity;BMP_temperature;BMP_pressure;BME280_temperature;BME280_humidity;BME280_pressure;Samples;Min_cycle;Max_cycle;Signal;HPM_P1;HPM_P2
2022/03/10 00:02:09;;;;;;;16.23;11.35;;;3.80;55.00;;;;;;6277079;22;20015;-84
2022/03/10 00:04:38;;;;;;;16.70;11.27;;;3.80;55.00;;;;;;6277421;22;20054;-84
2022/03/10 00:07:05;;;;;;;22.30;12.43;;;3.80;54.90;;;;;;6276966;22;20019;-83
2022/03/10 00:09:34;;;;;;;17.35;11.85;;;3.80;54.70;;;;;;6277283;22;20022;-84
2022/03/10 00:12:01;;;;;;;17.05;12.25;;;3.80;54.80;;;;;;6276779;22;20061;-84
2022/03/10 00:14:27;;;;;;;16.77;11.35;;;3.70;55.00;;;;;;6277109;22;20019;-84
2022/03/10 00:16:53;;;;;;;19.08;12.55;;;3.80;55.00;;;;;;6249799;22;20015;-84
2022/03/10 00:19:19;;;;;;;16.17;11.37;;;3.70;55.00;;;;;;6251659;22;20347;-84
2022/03/10 00:21:46;;;;;;;18.77;11.82;;;3.80;55.20;;;;;;6279149;22;20020;-84
2022/03/10 00:24:12;;;;;;;16.27;11.17;;;3.70;55.20;;;;;;6251569;22;20393;-84
2022/03/10 00:26:38;;;;;;;16.37;11.47;;;3.70;55.20;;;;;;6251454;22;20047;-84
2022/03/10 00:29:05;;;;;;;19.92;13.20;;;3.70;55.20;;;;;;6278786;22;20015;-84
2022/03/10 00:31:31;;;;;;;17.10;12.32;;;3.70;55.30;;;;;;6251857;22;20134;-84
2022/03/10 00:33:58;;;;;;;17.73;12.68;;;3.70;55.30;;;;;;6278693;22;20051;-84
2022/03/10 00:36:23;;;;;;;18.97;12.70;;;3.70;55.30;;;;;;6278630;22;20046;-84
2022/03/10 00:38:49;;;;;;;18.47;12.20;;;3.70;55.20;;;;;;6251732;22;20382;-84
2022/03/10 00:41:15;;;;;;;17.70;13.10;;;3.70;55.30;;;;;;6250962;22;20020;-84
2022/03/10 00:43:41;;;;;;;17.30;12.00;;;3.70;54.90;;;;;;6278997;22;20019;-84
2022/03/10 00:46:06;;;;;;;16.70;11.57;;;3.60;54.60;;;;;;6279135;22;20015;-83
2022/03/10 00:48:33;;;;;;;15.67;11.07;;;3.60;54.90;;;;;;6251623;22;20427;-84
2022/03/10 00:50:58;;;;;;;16.93;11.50;;;3.60;55.10;;;;;;6278481;22;20018;-84
2022/03/10 00:53:24;;;;;;;17.77;12.17;;;3.50;55.20;;;;;;6251376;22;20023;-84
2022/03/10 00:55:50;;;;;;;16.73;11.10;;;3.50;55.30;;;;;;6251462;22;20454;-84
2022/03/10 00:58:15;;;;;;;19.55;12.82;;;3.50;55.20;;;;;;6278608;22;20086;-84
2022/03/10 01:00:41;;;;;;;17.67;11.70;;;3.50;55.20;;;;;;6278672;22;20078;-84
2022/03/10 01:03:06;;;;;;;16.83;11.30;;;3.40;55.00;;;;;;6278309;22;20019;-84
2022/03/10 01:05:32;;;;;;;17.33;11.77;;;3.40;55.10;;;;;;6251866;22;20022;-84
2022/03/10 01:07:58;;;;;;;16.70;10.80;;;3.40;55.30;;;;;;6279622;22;20069;-83
2022/03/10 01:10:24;;;;;;;16.23;11.63;;;3.40;55.40;;;;;;6266583;22;20061;-84
2022/03/10 01:12:50;;;;;;;16.13;11.40;;;3.40;55.50;;;;;;6270073;22;20011;-84
2022/03/10 01:15:22;;;;;;;16.20;11.53;;;3.40;55.60;;;;;;6290183;22;20019;-84
2022/03/10 01:17:49;;;;;;;16.97;12.77;;;3.40;55.50;;;;;;6263632;22;20047;-84
2022/03/10 01:20:18;;;;;;;21.60;14.10;;;3.30;55.30;;;;;;6289245;22;20023;-84
2022/03/10 01:22:45;;;;;;;18.03;12.30;;;3.30;55.00;;;;;;6291182;22;20309;-84
2022/03/10 01:25:11;;;;;;;19.50;13.60;;;3.30;54.60;;;;;;6253877;22;20012;-84
2022/03/10 01:27:37;;;;;;;21.37;14.07;;;3.20;54.40;;;;;;6278704;22;20339;-84
2022/03/10 01:30:03;;;;;;;19.53;12.73;;;3.20;54.30;;;;;;6250343;22;20019;-83
2022/03/10 01:32:29;;;;;;;21.43;13.10;;;3.10;54.20;;;;;;6278357;22;20024;-84
2022/03/10 01:34:55;;;;;;;20.47;13.80;;;3.10;54.20;;;;;;6225732;22;20059;-83
2022/03/10 01:37:20;;;;;;;18.23;13.20;;;3.10;54.10;;;;;;6250917;22;20031;-84
2022/03/10 01:39:47;;;;;;;21.43;13.87;;;3.00;54.10;;;;;;6250917;22;20086;-83
2022/03/10 01:42:13;;;;;;;19.77;13.83;;;2.90;54.00;;;;;;6279710;22;20015;-84
2022/03/10 01:44:39;;;;;;;17.47;12.03;;;2.80;53.90;;;;;;6278546;22;20039;-84
2022/03/10 01:47:05;;;;;;;19.90;14.10;;;2.80;54.00;;;;;;6250933;22;20336;-83
2022/03/10 01:49:32;;;;;;;17.87;12.00;;;2.70;54.00;;;;;;6278910;22;20016;-84
2022/03/10 01:51:59;;;;;;;20.17;12.87;;;2.70;54.10;;;;;;6278239;22;20008;-84
2022/03/10 01:54:24;;;;;;;20.90;13.73;;;2.60;54.20;;;;;;6251078;22;20061;-84
2022/03/10 01:56:50;;;;;;;21.30;14.60;;;2.60;54.40;;;;;;6250910;22;20389;-84
2022/03/10 01:59:18;;;;;;;19.43;13.90;;;2.60;54.30;;;;;;6250832;22;20051;-84
2022/03/10 02:01:44;;;;;;;19.63;12.97;;;2.50;54.20;;;;;;6250886;22;20062;-84
2022/03/10 02:04:10;;;;;;;20.93;13.00;;;2.40;54.20;;;;;;6250266;22;20015;-84
2022/03/10 02:06:36;;;;;;;20.00;13.07;;;2.40;54.20;;;;;;6278318;22;20026;-84
2022/03/10 02:11:48;;;;;;;18.00;11.73;;;2.30;54.20;;;;;;6277799;22;20069;-84
2022/03/10 02:19:42;;;;;;;16.57;11.43;;;2.30;54.90;;;;;;6278228;22;20024;-84
2022/03/10 02:22:10;;;;;;;18.63;12.07;;;2.30;55.30;;;;;;6249921;22;20263;-83
2022/03/10 02:24:41;;;;;;;19.40;12.90;;;2.30;55.60;;;;;;6277719;22;20075;-84
2022/03/10 02:27:27;;;;;;;18.53;13.07;;;2.30;55.90;;;;;;6250205;22;20026;-84
2022/03/10 02:29:59;;;;;;;21.10;12.80;;;2.40;56.00;;;;;;6250452;22;20019;-84
2022/03/10 02:32:25;;;;;;;19.97;13.33;;;2.40;55.90;;;;;;6250528;22;20024;-83
2022/03/10 02:34:51;;;;;;;19.37;12.73;;;2.40;55.60;;;;;;6250906;22;20020;-84
2022/03/10 02:37:17;;;;;;;16.73;11.60;;;2.40;55.00;;;;;;6277792;22;20039;-83
2022/03/10 02:39:44;;;;;;;14.80;11.07;;;2.40;55.20;;;;;;6277729;22;20015;-83
2022/03/10 02:42:11;;;;;;;15.93;11.47;;;2.40;55.60;;;;;;6277673;22;20443;-84
2022/03/10 02:44:55;;;;;;;16.53;11.87;;;2.50;55.90;;;;;;6277408;22;20439;-83
2022/03/10 02:47:20;;;;;;;16.25;11.48;;;2.50;56.30;;;;;;6277668;22;20016;-84
2022/03/10 02:49:46;;;;;;;18.57;12.30;;;2.50;56.20;;;;;;6277422;22;20508;-83
2022/03/10 02:52:12;;;;;;;19.53;12.63;;;2.50;56.20;;;;;;6250569;22;20380;-83
2022/03/10 02:54:38;;;;;;;16.53;11.20;;;2.60;56.00;;;;;;6277759;22;20012;-84
2022/03/10 02:57:04;;;;;;;16.83;11.53;;;2.50;56.00;;;;;;6250231;22;20024;-84
2022/03/10 02:59:29;;;;;;;16.33;11.00;;;2.60;56.20;;;;;;6277238;22;20008;-84
2022/03/10 03:01:56;;;;;;;17.30;12.20;;;2.60;56.30;;;;;;6250203;22;20019;-84
2022/03/10 03:04:22;;;;;;;16.80;11.50;;;2.60;56.40;;;;;;6277713;22;20015;-84
2022/03/10 03:06:48;;;;;;;16.93;10.87;;;2.70;56.60;;;;;;6277690;22;20011;-84
2022/03/10 03:09:14;;;;;;;17.57;11.57;;;2.70;56.60;;;;;;6277626;22;20381;-84
2022/03/10 03:11:39;;;;;;;17.97;11.53;;;2.70;56.60;;;;;;6250278;22;20022;-84
2022/03/10 03:14:05;;;;;;;17.60;11.77;;;2.70;56.60;;;;;;6277688;22;20316;-84
2022/03/10 03:16:31;;;;;;;17.07;12.07;;;2.70;56.50;;;;;;6277553;22;20091;-84
2022/03/10 03:18:56;;;;;;;16.47;11.63;;;2.80;56.60;;;;;;6277368;22;20087;-84
2022/03/10 03:21:23;;;;;;;15.90;10.87;;;2.80;56.70;;;;;;6277098;22;20011;-84
2022/03/10 03:23:50;;;;;;;16.03;11.43;;;2.80;56.70;;;;;;6250042;22;20020;-84
2022/03/10 03:26:15;;;;;;;18.03;12.60;;;2.80;56.60;;;;;;6277376;22;20011;-84
2022/03/10 03:28:42;;;;;;;14.80;10.97;;;2.80;56.50;;;;;;6277606;22;20451;-83
2022/03/10 03:31:09;;;;;;;18.60;11.57;;;2.80;56.30;;;;;;6249833;22;20012;-84
2022/03/10 03:33:35;;;;;;;16.83;11.70;;;2.80;56.20;;;;;;6250129;22;20016;-84
2022/03/10 03:36:01;;;;;;;16.00;11.57;;;2.80;56.20;;;;;;6250231;22;20448;-84
2022/03/10 03:38:27;;;;;;;17.47;11.80;;;2.80;56.60;;;;;;6277176;22;20022;-84
2022/03/10 03:40:53;;;;;;;15.77;11.17;;;2.80;56.30;;;;;;6276917;22;20412;-83
2022/03/10 03:43:18;;;;;;;15.13;11.50;;;2.80;56.30;;;;;;6250055;22;20020;-84
2022/03/10 03:45:44;;;;;;;17.90;12.37;;;2.80;56.40;;;;;;6250045;22;20016;-84
2022/03/10 03:48:09;;;;;;;15.97;11.87;;;2.80;56.30;;;;;;6250118;22;20390;-83
2022/03/10 03:50:35;;;;;;;18.10;12.13;;;2.80;56.00;;;;;;6249585;22;20158;-84
2022/03/10 03:53:01;;;;;;;15.07;11.03;;;2.80;56.00;;;;;;6278597;22;20053;-83
2022/03/10 03:55:27;;;;;;;17.13;12.30;;;2.80;56.10;;;;;;6279529;22;20137;-84
2022/03/10 03:57:53;;;;;;;17.23;11.27;;;2.90;56.10;;;;;;6279624;22;20015;-84
2022/03/10 04:00:19;;;;;;;15.70;10.97;;;2.70;56.00;;;;;;6279564;22;20012;-83
2022/03/10 04:02:45;;;;;;;17.83;11.83;;;2.70;56.10;;;;;;6277207;22;20462;-84
2022/03/10 04:05:12;;;;;;;17.07;11.90;;;2.70;56.20;;;;;;6225600;22;20379;-84
2022/03/10 04:07:38;;;;;;;17.90;12.27;;;2.70;56.40;;;;;;6279118;22;20081;-84
2022/03/10 04:10:06;;;;;;;16.40;11.27;;;2.70;56.50;;;;;;6278750;22;20026;-84
2022/03/10 04:12:32;;;;;;;19.67;13.20;;;2.70;56.60;;;;;;6278832;22;20084;-83
2022/03/10 04:14:58;;;;;;;15.70;11.43;;;2.70;56.50;;;;;;6279179;22;20007;-84
2022/03/10 04:17:24;;;;;;;16.87;11.13;;;2.70;56.40;;;;;;6251864;22;20466;-83
2022/03/10 04:19:49;;;;;;;17.60;11.80;;;2.70;56.50;;;;;;6278719;22;20044;-84
2022/03/10 04:22:15;;;;;;;15.20;11.33;;;2.60;56.50;;;;;;6279145;22;20019;-83
2022/03/10 04:24:41;;;;;;;17.23;11.57;;;2.70;56.60;;;;;;6278890;22;20016;-83
2022/03/10 04:27:06;;;;;;;16.53;11.47;;;2.70;56.70;;;;;;6277079;22;20355;-84
2022/03/10 04:29:32;;;;;;;17.07;12.00;;;2.70;56.70;;;;;;6278846;22;20016;-83
2022/03/10 04:31:58;;;;;;;15.67;10.97;;;2.70;56.60;;;;;;6279137;22;20020;-84
2022/03/10 04:34:24;;;;;;;16.40;10.90;;;2.70;56.50;;;;;;6251613;22;20015;-84
2022/03/10 04:36:49;;;;;;;16.53;11.77;;;2.70;56.50;;;;;;6251238;22;20018;-83
2022/03/10 04:39:15;;;;;;;16.57;11.77;;;2.70;56.60;;;;;;6251641;22;20054;-84
2022/03/10 04:41:41;;;;;;;16.63;11.30;;;2.60;56.20;;;;;;6278539;22;20340;-83
2022/03/10 04:44:06;;;;;;;17.27;12.50;;;2.60;56.10;;;;;;6251924;22;20065;-84
2022/03/10 04:46:32;;;;;;;18.17;12.50;;;2.60;56.20;;;;;;6278950;22;20023;-84
2022/03/10 04:48:58;;;;;;;15.30;11.37;;;2.50;55.90;;;;;;6279193;22;20019;-84
2022/03/10 04:51:23;;;;;;;16.53;11.60;;;2.50;55.80;;;;;;6250825;22;20087;-83
2022/03/10 04:53:49;;;;;;;16.37;11.47;;;2.50;55.70;;;;;;6278865;22;20094;-84
2022/03/10 04:56:15;;;;;;;18.13;11.80;;;2.50;55.70;;;;;;6251041;22;20016;-84
2022/03/10 04:58:41;;;;;;;14.97;11.00;;;2.50;56.00;;;;;;6251276;22;20012;-84
2022/03/10 05:01:06;;;;;;;18.00;12.47;;;2.50;56.20;;;;;;6279124;22;20047;-84
2022/03/10 05:03:33;;;;;;;18.17;12.00;;;2.40;56.20;;;;;;6251195;22;20015;-84
2022/03/10 05:06:01;;;;;;;21.20;13.27;;;2.40;56.60;;;;;;6278339;22;20428;-84
2022/03/10 05:08:26;;;;;;;18.70;12.47;;;2.40;55.80;;;;;;6250999;22;20055;-84
2022/03/10 05:10:52;;;;;;;20.97;13.67;;;2.40;55.40;;;;;;6251397;22;20023;-84
2022/03/10 05:13:18;;;;;;;20.50;13.70;;;2.30;55.10;;;;;;6251392;22;20022;-84
2022/03/10 05:15:43;;;;;;;21.33;13.33;;;2.30;54.90;;;;;;6251403;22;20012;-83
2022/03/10 05:18:09;;;;;;;20.47;12.77;;;2.30;54.70;;;;;;6278244;22;20050;-82
2022/03/10 05:20:35;;;;;;;21.57;13.77;;;2.20;54.50;;;;;;6278120;22;20090;-84
2022/03/10 05:23:03;;;;;;;19.27;12.83;;;2.20;54.40;;;;;;6278920;22;20015;-84
2022/03/10 05:25:39;;;;;;;17.80;12.20;;;2.20;54.50;;;;;;6278096;22;20015;-84
2022/03/10 05:28:11;;;;;;;18.03;12.03;;;2.10;54.60;;;;;;6276365;22;20051;-83
2022/03/10 05:30:37;;;;;;;16.57;12.50;;;2.10;54.80;;;;;;6278363;22;20022;-84
2022/03/10 05:33:02;;;;;;;21.80;13.10;;;2.10;54.90;;;;;;6252097;22;20015;-83
2022/03/10 05:35:29;;;;;;;19.07;12.83;;;2.10;55.00;;;;;;6252144;22;20016;-84
2022/03/10 05:37:56;;;;;;;18.07;12.47;;;2.10;55.20;;;;;;6281068;22;20083;-83
2022/03/10 05:40:22;;;;;;;17.53;12.27;;;2.20;55.30;;;;;;6301128;22;20027;-84
2022/03/10 05:42:51;;;;;;;19.27;12.97;;;2.20;55.00;;;;;;6254514;22;20012;-84
2022/03/10 05:45:20;;;;;;;20.77;12.87;;;2.20;54.90;;;;;;6251705;22;20015;-84
2022/03/10 05:47:50;;;;;;;20.70;12.80;;;2.20;54.80;;;;;;6278782;22;20494;-84
2022/03/10 05:50:16;;;;;;;20.90;12.57;;;2.20;54.60;;;;;;6251098;22;20062;-83
2022/03/10 05:52:43;;;;;;;21.57;13.63;;;2.10;54.50;;;;;;6277707;22;20058;-82
2022/03/10 05:55:08;;;;;;;22.87;14.80;;;2.20;54.50;;;;;;6281536;22;20012;-85
2022/03/10 05:57:34;;;;;;;19.47;12.57;;;2.30;54.50;;;;;;6251311;22;20335;-84
2022/03/10 06:00:00;;;;;;;20.87;13.20;;;2.10;54.40;;;;;;6281056;22;20015;-83
2022/03/10 06:02:26;;;;;;;22.10;14.53;;;2.10;54.40;;;;;;6252505;22;20099;-83
2022/03/10 06:04:51;;;;;;;20.73;13.70;;;2.10;54.40;;;;;;6252292;22;20030;-83
2022/03/10 06:07:17;;;;;;;20.40;14.67;;;2.10;54.40;;;;;;6251166;22;20038;-84
2022/03/10 06:09:43;;;;;;;21.00;13.30;;;2.00;54.40;;;;;;6250747;22;20352;-83
2022/03/10 06:12:09;;;;;;;20.77;14.23;;;2.00;54.40;;;;;;6278385;22;20011;-83
2022/03/10 06:14:38;;;;;;;21.43;13.03;;;2.00;54.30;;;;;;6277420;22;20078;-83
2022/03/10 06:17:05;;;;;;;22.57;13.67;;;2.00;54.40;;;;;;6278448;22;20026;-83
2022/03/10 06:19:31;;;;;;;20.97;12.50;;;2.00;54.40;;;;;;6250687;22;20016;-83
2022/03/10 06:21:56;;;;;;;21.07;12.57;;;2.00;54.40;;;;;;6250820;22;20089;-83
2022/03/10 06:24:22;;;;;;;19.77;13.23;;;2.00;54.60;;;;;;6250474;22;20034;-83
2022/03/10 06:26:47;;;;;;;21.10;13.23;;;2.00;55.00;;;;;;6250579;22;20018;-83
2022/03/10 06:29:13;;;;;;;24.80;14.10;;;2.00;55.30;;;;;;6277950;22;20334;-83
2022/03/10 06:31:40;;;;;;;21.77;13.17;;;2.00;55.30;;;;;;6250766;22;20455;-83
2022/03/10 06:34:06;;;;;;;21.07;14.07;;;2.10;55.20;;;;;;6277589;22;20023;-83
2022/03/10 06:36:32;;;;;;;19.67;13.37;;;2.10;54.90;;;;;;6277631;22;20016;-83
2022/03/10 06:38:57;;;;;;;20.20;12.70;;;2.10;54.70;;;;;;6277844;22;20026;-82
2022/03/10 06:41:23;;;;;;;19.37;13.27;;;2.10;54.50;;;;;;6277587;22;20020;-83
2022/03/10 06:43:49;;;;;;;20.10;13.30;;;2.10;54.50;;;;;;6277747;22;20145;-83
2022/03/10 06:46:15;;;;;;;19.80;12.67;;;2.10;54.40;;;;;;6277101;22;20443;-82
2022/03/10 06:48:41;;;;;;;19.83;12.97;;;2.10;54.40;;;;;;6277905;22;20034;-83
2022/03/10 06:51:07;;;;;;;19.37;13.70;;;2.20;54.40;;;;;;6250677;22;20437;-83
2022/03/10 06:53:33;;;;;;;23.17;14.43;;;2.20;54.40;;;;;;6277486;22;20292;-83
2022/03/10 06:55:58;;;;;;;20.83;13.40;;;2.20;54.30;;;;;;6250663;22;20007;-83
2022/03/10 06:58:24;;;;;;;21.27;13.00;;;2.20;54.30;;;;;;6250260;22;20016;-83
2022/03/10 07:00:50;;;;;;;20.63;12.90;;;2.20;54.30;;;;;;6278090;22;20022;-83
2022/03/10 07:03:16;;;;;;;21.93;12.90;;;2.30;54.40;;;;;;6278477;22;20016;-82
2022/03/10 07:05:41;;;;;;;22.37;14.07;;;2.30;54.40;;;;;;6277812;22;20424;-83
2022/03/10 07:08:08;;;;;;;20.57;12.87;;;2.30;54.80;;;;;;6277596;22;20016;-83
2022/03/10 07:10:33;;;;;;;19.93;13.67;;;2.40;54.40;;;;;;6277632;22;20015;-83
2022/03/10 07:12:59;;;;;;;21.60;13.90;;;2.40;54.40;;;;;;6250325;22;20011;-82
2022/03/10 07:15:26;;;;;;;17.53;13.23;;;2.50;54.50;;;;;;6250463;22;20365;-83
2022/03/10 07:17:51;;;;;;;18.07;12.57;;;2.50;54.50;;;;;;6250520;22;20020;-82
2022/03/10 07:20:20;;;;;;;24.13;14.00;;;2.60;54.60;;;;;;6277329;22;20470;-82
2022/03/10 07:22:46;;;;;;;19.40;12.40;;;2.60;54.40;;;;;;6277406;22;20030;-82
2022/03/10 07:25:12;;;;;;;20.50;13.20;;;2.70;54.50;;;;;;6277538;22;20016;-82
2022/03/10 07:27:38;;;;;;;20.73;13.60;;;2.80;54.60;;;;;;6250376;22;20436;-82
2022/03/10 07:30:04;;;;;;;19.33;12.77;;;2.90;54.70;;;;;;6277508;22;20070;-82
2022/03/10 07:32:30;;;;;;;21.73;14.17;;;2.90;54.60;;;;;;6277933;22;20016;-82
2022/03/10 07:34:56;;;;;;;21.10;13.23;;;3.00;54.70;;;;;;6277930;22;20443;-82
2022/03/10 07:37:21;;;;;;;20.13;13.00;;;3.10;54.70;;;;;;6277800;22;20012;-82
2022/03/10 07:39:47;;;;;;;21.10;13.40;;;3.30;54.40;;;;;;6277162;22;20432;-82
2022/03/10 07:42:13;;;;;;;19.57;12.80;;;3.40;54.10;;;;;;6278132;22;20330;-82
2022/03/10 07:44:39;;;;;;;18.40;13.07;;;3.50;53.70;;;;;;6250301;22;20061;-82
2022/03/10 07:47:05;;;;;;;19.57;12.27;;;3.70;53.20;;;;;;6277218;22;20016;-82
2022/03/10 07:49:32;;;;;;;20.88;13.75;;;3.80;52.90;;;;;;6250170;22;20012;-82
2022/03/10 07:51:59;;;;;;;18.73;12.10;;;4.00;52.70;;;;;;6277298;22;20083;-82
2022/03/10 07:54:25;;;;;;;18.48;12.95;;;4.20;52.50;;;;;;6250099;22;20505;-82
2022/03/10 07:56:51;;;;;;;24.13;15.18;;;4.30;51.70;;;;;;6250770;22;20015;-82
2022/03/10 07:59:17;;;;;;;17.77;12.15;;;4.50;51.80;;;;;;6250173;22;20432;-82
2022/03/10 08:01:42;;;;;;;18.55;12.52;;;4.60;51.60;;;;;;6276898;22;20058;-82
2022/03/10 08:04:08;;;;;;;21.05;13.10;;;4.80;51.40;;;;;;6249989;22;20027;-82
2022/03/10 08:06:34;;;;;;;19.90;13.10;;;4.90;51.40;;;;;;6250057;22;20087;-82
2022/03/10 08:09:01;;;;;;;19.67;13.73;;;5.10;51.00;;;;;;6277600;22;20026;-82
2022/03/10 08:11:27;;;;;;;17.08;11.68;;;5.20;50.60;;;;;;6277144;22;20015;-82
2022/03/10 08:13:54;;;;;;;17.50;13.10;;;5.40;50.40;;;;;;6277584;22;20027;-82
2022/03/10 08:16:19;;;;;;;21.08;12.63;;;5.60;50.20;;;;;;6249947;22;20012;-82
2022/03/10 08:18:47;;;;;;;18.92;12.68;;;5.70;49.80;;;;;;6277507;22;20016;-82
2022/03/10 08:21:12;;;;;;;18.92;12.63;;;5.90;49.70;;;;;;6277324;22;20323;-82
2022/03/10 08:23:38;;;;;;;18.38;12.13;;;6.10;49.10;;;;;;6249749;22;20054;-82
2022/03/10 08:26:04;;;;;;;19.70;13.20;;;6.30;48.90;;;;;;6277046;22;20012;-82
2022/03/10 08:28:29;;;;;;;19.17;13.02;;;6.50;48.60;;;;;;6250322;22;20340;-82
2022/03/10 08:30:56;;;;;;;20.40;13.60;;;6.70;48.40;;;;;;6277329;22;20085;-82
2022/03/10 08:33:21;;;;;;;18.92;12.65;;;7.00;48.00;;;;;;6277605;22;20053;-82
2022/03/10 08:35:47;;;;;;;17.05;12.70;;;7.20;47.60;;;;;;6277330;22;20435;-82
2022/03/10 08:38:13;;;;;;;17.20;12.98;;;7.40;47.30;;;;;;6277335;22;20369;-82
2022/03/10 08:40:39;;;;;;;20.10;13.10;;;7.70;46.60;;;;;;6279005;22;20012;-82
2022/03/10 08:43:06;;;;;;;17.70;12.98;;;7.90;46.10;;;;;;6279375;22;20020;-82
2022/03/10 08:45:32;;;;;;;18.45;13.30;;;8.10;45.90;;;;;;6279397;22;20019;-82
2022/03/10 08:47:57;;;;;;;18.73;13.48;;;8.40;44.60;;;;;;6251746;22;20047;-83
2022/03/10 08:50:23;;;;;;;17.48;12.98;;;8.60;43.90;;;;;;6278857;22;20019;-82
2022/03/10 08:52:49;;;;;;;22.08;14.38;;;8.80;43.50;;;;;;6277652;22;20012;-81
2022/03/10 08:55:15;;;;;;;17.85;13.07;;;8.90;42.50;;;;;;6279444;22;20023;-82
2022/03/10 08:57:41;;;;;;;19.88;14.18;;;9.00;42.30;;;;;;6279191;22;20027;-82
2022/03/10 09:00:09;;;;;;;18.05;13.15;;;9.30;41.40;;;;;;6279957;22;20012;-82
2022/03/10 09:02:35;;;;;;;20.73;14.45;;;9.40;41.10;;;;;;6277930;22;20020;-82
2022/03/10 09:05:00;;;;;;;15.70;12.70;;;9.60;40.70;;;;;;6252623;22;20458;-82
2022/03/10 09:07:29;;;;;;;19.83;14.00;;;9.60;40.90;;;;;;6278705;22;20055;-83
2022/03/10 09:09:55;;;;;;;18.42;14.27;;;9.80;40.30;;;;;;6282416;22;20436;-83
2022/03/10 09:12:21;;;;;;;18.27;13.30;;;9.90;39.70;;;;;;6283824;22;20079;-82
2022/03/10 09:14:47;;;;;;;18.58;13.90;;;10.00;39.40;;;;;;6257141;22;20019;-82
2022/03/10 09:17:13;;;;;;;18.85;14.32;;;10.10;39.30;;;;;;6287211;22;20506;-82
2022/03/10 09:19:39;;;;;;;18.48;13.80;;;10.20;39.30;;;;;;6287785;22;20018;-81
2022/03/10 09:22:04;;;;;;;18.45;14.18;;;10.30;39.30;;;;;;6261760;22;20016;-81
2022/03/10 09:24:31;;;;;;;19.90;13.02;;;10.40;39.90;;;;;;6289811;22;20448;-83
2022/03/10 09:26:58;;;;;;;20.02;13.80;;;10.50;39.70;;;;;;6263264;22;20132;-82
2022/03/10 09:29:23;;;;;;;18.23;14.18;;;10.60;39.70;;;;;;6289911;22;20039;-82
2022/03/10 09:31:49;;;;;;;19.30;12.85;;;10.70;39.00;;;;;;6286794;22;20059;-82
2022/03/10 09:34:15;;;;;;;19.60;13.63;;;10.80;39.00;;;;;;6288345;22;20007;-82
2022/03/10 09:36:41;;;;;;;17.52;13.15;;;10.90;38.40;;;;;;6291327;22;20015;-82
2022/03/10 09:39:06;;;;;;;17.35;13.38;;;11.10;38.50;;;;;;6265546;22;20027;-83
2022/03/10 09:41:32;;;;;;;18.80;13.88;;;11.10;38.40;;;;;;6262774;22;20053;-83
2022/03/10 09:43:59;;;;;;;19.10;14.30;;;11.30;37.50;;;;;;6263541;22;20338;-81
2022/03/10 09:46:25;;;;;;;19.17;14.15;;;11.40;37.60;;;;;;6262606;22;20015;-84
2022/03/10 09:48:52;;;;;;;20.98;13.77;;;11.50;37.20;;;;;;6247273;22;20055;-83
2022/03/10 09:51:22;;;;;;;20.85;15.38;;;11.70;37.00;;;;;;6246922;22;20038;-81
2022/03/10 09:54:06;;;;;;;19.20;13.43;;;11.60;36.70;;;;;;6247972;22;20094;-82
2022/03/10 09:56:36;;;;;;;20.85;15.07;;;11.70;36.70;;;;;;6274253;22;20024;-82
2022/03/10 09:59:05;;;;;;;18.55;15.27;;;11.80;36.80;;;;;;6274240;22;20045;-82
2022/03/10 10:01:30;;;;;;;19.42;14.43;;;11.90;37.30;;;;;;6246036;22;20313;-81
2022/03/10 10:03:56;;;;;;;18.02;13.40;;;12.00;37.20;;;;;;6274119;22;20031;-82
2022/03/10 10:06:22;;;;;;;19.45;14.18;;;12.10;37.10;;;;;;6275312;22;20016;-82
2022/03/10 10:08:55;;;;;;;21.15;15.20;;;12.10;37.10;;;;;;6278293;22;20066;-82
2022/03/10 10:11:33;;;;;;;21.20;14.97;;;12.20;36.90;;;;;;6278197;22;20330;-81
2022/03/10 10:13:59;;;;;;;19.35;13.57;;;12.30;36.80;;;;;;6250928;22;20016;-81
2022/03/10 10:16:25;;;;;;;17.98;14.27;;;12.40;37.00;;;;;;6250833;22;20023;-82
2022/03/10 10:18:58;;;;;;;18.90;13.90;;;12.50;36.90;;;;;;6251140;22;20031;-82
2022/03/10 10:21:25;;;;;;;18.75;14.40;;;12.50;37.10;;;;;;6251573;22;20077;-81
2022/03/10 10:23:53;;;;;;;18.67;13.70;;;12.60;36.90;;;;;;6277879;22;20020;-82
2022/03/10 10:26:26;;;;;;;20.55;14.02;;;12.60;36.50;;;;;;6277843;22;20043;-81
2022/03/10 10:28:52;;;;;;;18.80;14.60;;;12.70;36.60;;;;;;6278086;22;20026;-81
2022/03/10 10:31:24;;;;;;;21.05;14.20;;;12.80;36.70;;;;;;6278394;22;20011;-81
2022/03/10 10:34:10;;;;;;;20.98;15.23;;;12.80;36.20;;;;;;6277996;22;20081;-82
2022/03/10 10:36:37;;;;;;;21.13;15.25;;;12.90;35.90;;;;;;6250912;22;20026;-81
2022/03/10 10:39:16;;;;;;;20.95;14.55;;;12.90;36.20;;;;;;6251356;22;20027;-81
2022/03/10 10:41:46;;;;;;;21.38;14.85;;;13.00;36.20;;;;;;6278734;22;20015;-81
2022/03/10 10:44:20;;;;;;;19.20;15.13;;;13.10;36.10;;;;;;6281346;22;20015;-81
2022/03/10 10:46:49;;;;;;;22.15;16.52;;;13.20;35.60;;;;;;6279130;22;20055;-81
2022/03/10 10:49:20;;;;;;;22.17;15.68;;;13.20;35.40;;;;;;6277863;22;20019;-82
2022/03/10 10:51:48;;;;;;;18.75;14.55;;;13.20;35.30;;;;;;6250651;22;20034;-81
2022/03/10 10:54:28;;;;;;;23.83;17.20;;;13.30;35.20;;;;;;6277894;22;20016;-82
2022/03/10 10:57:02;;;;;;;21.00;15.48;;;13.30;35.10;;;;;;6250980;22;20018;-82
2022/03/10 10:59:34;;;;;;;;;;;13.30;35.10;;;;;;6251294;22;20022;-82
2022/03/10 11:02:08;;;;;;;23.40;16.13;;;13.30;35.00;;;;;;6250504;22;20270;-83
2022/03/10 11:04:34;;;;;;;24.17;16.80;;;13.30;35.40;;;;;;6249779;22;20019;-82
2022/03/10 11:07:00;;;;;;;21.30;15.75;;;13.30;35.20;;;;;;6277777;22;20015;-82
2022/03/10 11:09:26;;;;;;;22.20;16.55;;;13.40;34.90;;;;;;6249930;22;20475;-82
2022/03/10 11:11:53;;;;;;;24.65;17.60;;;13.40;34.90;;;;;;6275996;22;20008;-82
2022/03/10 11:14:19;;;;;;;24.13;16.77;;;13.50;34.60;;;;;;6277713;22;20090;-84
2022/03/10 11:16:45;;;;;;;23.52;17.65;;;13.50;34.80;;;;;;6275537;22;20314;-82
2022/03/10 11:19:17;;;;;;;22.90;17.15;;;13.60;35.10;;;;;;6224944;22;20077;-83
2022/03/10 11:21:58;;;;;;;25.08;17.55;;;13.60;34.80;;;;;;6277829;22;20078;-83
2022/03/10 11:24:33;;;;;;;25.63;18.27;;;13.70;34.50;;;;;;6277551;22;20095;-82
2022/03/10 11:27:03;;;;;;;23.23;17.15;;;13.70;34.70;;;;;;6277366;22;20022;-82
2022/03/10 11:29:32;;;;;;;24.10;17.27;;;13.80;34.70;;;;;;6277764;22;20099;-82
2022/03/10 11:31:58;;;;;;;24.70;18.10;;;13.80;34.70;;;;;;6277493;22;20054;-83
2022/03/10 11:34:44;;;;;;;22.58;16.55;;;13.80;34.50;;;;;;6250094;22;20016;-83
2022/03/10 11:37:10;;;;;;;27.15;17.80;;;13.90;34.60;;;;;;6277590;22;20051;-83
2022/03/10 11:39:55;;;;;;;23.67;17.98;;;13.90;34.40;;;;;;6249847;22;20016;-82
2022/03/10 11:42:29;;;;;;;24.27;18.05;;;14.00;34.50;;;;;;6277543;22;20020;-83
2022/03/10 11:45:28;;;;;;;22.33;16.55;;;14.00;34.50;;;;;;6250319;22;20016;-83
2022/03/10 11:47:54;;;;;;;24.38;18.25;;;14.00;34.90;;;;;;6154602;23;20033;-83
2022/03/10 11:50:22;;;;;;;25.70;18.40;;;14.10;35.10;;;;;;6153771;23;20018;-83
2022/03/10 11:53:00;;;;;;;25.83;17.17;;;14.20;34.60;;;;;;6129483;23;20065;-83
2022/03/10 11:55:38;;;;;;;25.20;17.65;;;14.20;34.70;;;;;;6129129;23;20092;-83
2022/03/10 11:58:06;;;;;;;25.52;17.95;;;14.30;35.00;;;;;;6129384;23;20025;-83
2022/03/10 12:00:41;;;;;;;24.75;18.00;;;14.40;34.90;;;;;;6129203;23;20045;-83
2022/03/10 12:03:17;;;;;;;24.38;17.60;;;14.40;35.00;;;;;;6153462;23;20366;-83
2022/03/10 12:05:55;;;;;;;25.90;18.70;;;14.50;35.10;;;;;;6153892;23;20021;-83
2022/03/10 12:08:23;;;;;;;24.23;18.75;;;14.40;34.90;;;;;;6153821;23;20017;-82
2022/03/10 12:10:49;;;;;;;27.02;17.45;;;14.50;34.60;;;;;;6153737;23;20588;-83
2022/03/10 12:13:35;;;;;;;24.65;18.15;;;14.60;34.70;;;;;;6129803;23;20015;-83
2022/03/10 12:16:23;;;;;;;25.95;18.00;;;14.50;34.70;;;;;;6155816;23;20021;-83
2022/03/10 12:18:49;;;;;;;26.25;17.73;;;14.60;34.70;;;;;;6097963;23;20022;-83
2022/03/10 12:21:26;;;;;;;23.25;16.65;;;14.60;34.80;;;;;;6072888;23;20026;-83
2022/03/10 12:24:04;;;;;;;24.05;18.00;;;14.70;34.90;;;;;;6135945;23;20100;-83
2022/03/10 12:26:34;;;;;;;25.08;18.55;;;14.80;34.80;;;;;;6130756;23;20446;-83
2022/03/10 12:29:04;;;;;;;24.23;16.88;;;14.80;34.60;;;;;;6155446;23;20021;-83
2022/03/10 12:31:35;;;;;;;24.08;17.80;;;14.80;34.40;;;;;;6106227;23;20021;-83
2022/03/10 12:34:14;;;;;;;22.58;17.02;;;14.80;34.20;;;;;;6155576;23;20014;-83
2022/03/10 12:36:49;;;;;;;26.58;18.42;;;14.90;34.40;;;;;;6130978;23;20026;-83
2022/03/10 12:39:17;;;;;;;25.17;17.98;;;14.90;34.20;;;;;;6155505;23;20014;-83
2022/03/10 12:41:50;;;;;;;25.38;18.63;;;14.80;34.50;;;;;;6130916;23;20032;-83
2022/03/10 12:44:21;;;;;;;24.05;17.73;;;14.90;34.50;;;;;;6130904;23;20033;-83